createdAt,value
2018-11-13T00:01:15.491Z,17.63
2018-11-13T00:03:42.886Z,18.40
2018-11-13T00:06:10.254Z,15.23
2018-11-13T00:08:37.626Z,17.20
2018-11-13T00:11:05.014Z,22.57
2018-11-13T00:13:32.381Z,15.63
2018-11-13T00:15:59.742Z,18.03
2018-11-13T00:18:27.118Z,23.57
2018-11-13T00:20:54.506Z,15.60
2018-11-13T00:23:21.866Z,14.67
2018-11-13T00:25:49.266Z,19.60
2018-11-13T00:28:16.642Z,15.30
2018-11-13T00:30:44.019Z,15.47
2018-11-13T00:33:12.390Z,13.90
2018-11-13T00:35:39.760Z,17.33
2018-11-13T00:38:07.131Z,15.67
2018-11-13T00:40:34.502Z,15.27
2018-11-13T00:43:02.886Z,19.27
2018-11-13T00:45:30.317Z,19.60
2018-11-13T00:47:57.679Z,19.57
2018-11-13T00:50:25.014Z,15.50
2018-11-13T00:52:52.410Z,17.00
2018-11-13T00:55:19.789Z,18.30
2018-11-13T00:57:48.237Z,17.27
2018-11-13T01:00:18.059Z,16.03
2018-11-13T01:02:45.618Z,19.07
2018-11-13T01:05:14.237Z,13.47
2018-11-13T01:07:42.446Z,23.53
2018-11-13T01:10:10.801Z,14.77
2018-11-13T01:12:38.198Z,13.80
2018-11-13T01:15:06.172Z,16.83
2018-11-13T01:17:33.496Z,14.43
2018-11-13T01:20:00.867Z,15.73
2018-11-13T01:22:28.327Z,14.70
2018-11-13T01:24:55.638Z,16.73
2018-11-13T01:27:23.001Z,16.33
2018-11-13T01:29:54.510Z,14.70
2018-11-13T01:32:21.946Z,14.83
2018-11-13T01:34:49.314Z,14.50
2018-11-13T01:37:16.683Z,14.67
2018-11-13T01:39:44.052Z,11.50
2018-11-13T01:42:11.429Z,19.03
2018-11-13T01:44:38.818Z,12.23
2018-11-13T01:47:06.263Z,12.00
2018-11-13T01:49:33.636Z,13.53
2018-11-13T01:52:01.014Z,16.03
2018-11-13T01:54:28.380Z,16.03
2018-11-13T01:56:55.814Z,17.33
2018-11-13T01:59:23.159Z,15.87
2018-11-13T02:01:50.506Z,16.90
2018-11-13T02:04:17.882Z,16.73
2018-11-13T02:06:45.258Z,21.23
2018-11-13T02:09:12.623Z,16.10
2018-11-13T02:11:40.046Z,16.67
2018-11-13T02:14:07.439Z,14.63
2018-11-13T02:16:34.862Z,14.40
2018-11-13T02:19:02.254Z,15.53
2018-11-13T02:21:29.874Z,17.40
2018-11-13T02:23:57.259Z,15.13
2018-11-13T02:26:24.631Z,16.77
2018-11-13T02:28:52.018Z,17.00
2018-11-13T02:31:19.379Z,16.57
2018-11-13T02:33:46.751Z,16.30
2018-11-13T02:36:14.131Z,16.13
2018-11-13T02:38:41.487Z,14.77
2018-11-13T02:41:08.850Z,14.00
2018-11-13T02:43:36.239Z,14.70
2018-11-13T02:46:03.607Z,12.13
2018-11-13T02:48:31.011Z,10.93
2018-11-13T02:50:58.412Z,16.53
2018-11-13T02:53:25.803Z,9.23
2018-11-13T02:55:53.178Z,11.70
2018-11-13T02:58:20.546Z,9.47
2018-11-13T03:00:47.937Z,10.70
2018-11-13T03:03:15.342Z,10.47
2018-11-13T03:05:42.702Z,10.20
2018-11-13T03:08:10.067Z,9.30
2018-11-13T03:10:37.466Z,10.70
2018-11-13T03:13:04.903Z,11.83
2018-11-13T03:15:32.337Z,10.03
2018-11-13T03:17:59.707Z,12.00
2018-11-13T03:20:27.062Z,8.23
2018-11-13T03:22:54.438Z,10.50
2018-11-13T03:25:22.466Z,12.60
2018-11-13T03:27:49.822Z,7.80
2018-11-13T03:30:19.975Z,5.93
2018-11-13T03:32:47.459Z,6.07
2018-11-13T03:35:14.830Z,7.07
2018-11-13T03:37:42.558Z,6.77
2018-11-13T03:40:13.579Z,9.30
2018-11-13T03:42:41.463Z,7.63
2018-11-13T03:45:10.143Z,5.93
2018-11-13T03:47:37.790Z,5.93
2018-11-13T03:50:06.026Z,5.10
2018-11-13T03:52:33.377Z,6.77
2018-11-13T03:55:00.819Z,7.20
2018-11-13T03:57:28.266Z,5.80
2018-11-13T03:59:55.652Z,7.07
2018-11-13T04:02:23.022Z,6.93
2018-11-13T04:04:50.406Z,6.23
2018-11-13T04:07:17.829Z,7.00
2018-11-13T04:09:45.189Z,12.00
2018-11-13T04:12:12.555Z,7.63
2018-11-13T04:14:39.958Z,11.80
2018-11-13T04:17:07.332Z,7.60
2018-11-13T04:19:38.496Z,7.17
2018-11-13T04:22:05.858Z,11.60
2018-11-13T04:24:33.533Z,9.00
2018-11-13T04:27:04.594Z,7.17
2018-11-13T04:29:31.954Z,6.17
2018-11-13T04:31:59.344Z,9.67
2018-11-13T04:34:26.714Z,7.00
2018-11-13T04:36:54.074Z,6.60
2018-11-13T04:39:21.456Z,8.67
2018-11-13T04:41:48.811Z,7.20
2018-11-13T04:44:16.175Z,9.13
2018-11-13T04:46:43.817Z,7.90
2018-11-13T04:49:11.199Z,7.90
2018-11-13T04:51:38.706Z,10.20
2018-11-13T04:54:06.006Z,5.77
2018-11-13T04:56:33.362Z,5.10
2018-11-13T04:59:00.742Z,6.70
2018-11-13T05:01:28.106Z,5.97
2018-11-13T05:03:59.306Z,6.53
2018-11-13T05:06:26.678Z,6.40
2018-11-13T05:08:54.030Z,6.87
2018-11-13T05:11:21.395Z,7.10
2018-11-13T05:13:48.800Z,10.60
2018-11-13T05:16:16.140Z,5.77
2018-11-13T05:18:43.515Z,6.17
2018-11-13T05:21:10.870Z,9.03
2018-11-13T05:23:38.261Z,5.97
2018-11-13T05:26:05.634Z,7.07
2018-11-13T05:28:32.990Z,6.53
2018-11-13T05:31:00.358Z,6.50
2018-11-13T05:33:27.722Z,6.77
2018-11-13T05:35:55.081Z,8.90
2018-11-13T05:38:22.439Z,8.00
2018-11-13T05:40:49.791Z,8.43
2018-11-13T05:43:17.156Z,7.20
2018-11-13T05:45:44.534Z,8.70
2018-11-13T05:48:11.900Z,10.83
2018-11-13T05:50:39.259Z,11.83
2018-11-13T05:53:06.638Z,10.33
2018-11-13T05:55:34.059Z,9.67
2018-11-13T05:58:02.685Z,8.43
2018-11-13T06:00:31.191Z,8.13
2018-11-13T06:02:58.698Z,6.97
2018-11-13T06:05:26.086Z,9.13
2018-11-13T06:07:53.474Z,7.33
2018-11-13T06:10:20.878Z,7.07
2018-11-13T06:12:52.080Z,8.03
2018-11-13T06:15:22.503Z,7.70
2018-11-13T06:17:49.934Z,10.90
2018-11-13T06:20:17.322Z,9.97
2018-11-13T06:22:45.683Z,8.40
2018-11-13T06:25:14.266Z,9.50
2018-11-13T06:27:42.738Z,11.77
2018-11-13T06:30:12.870Z,9.10
2018-11-13T06:32:43.696Z,13.33
2018-11-13T06:35:11.171Z,9.23
2018-11-13T06:37:38.940Z,10.20
2018-11-13T06:40:06.790Z,13.13
2018-11-13T06:42:34.158Z,9.83
2018-11-13T06:45:01.540Z,9.57
2018-11-13T06:47:28.921Z,12.77
2018-11-13T06:49:56.287Z,10.57
2018-11-13T06:52:27.186Z,8.50
2018-11-13T06:55:02.946Z,11.03
2018-11-13T06:57:31.159Z,7.93
2018-11-13T06:59:58.651Z,8.50
2018-11-13T07:02:26.003Z,8.33
2018-11-13T07:04:53.391Z,7.20
2018-11-13T07:07:24.302Z,6.90
2018-11-13T07:09:54.695Z,8.53
2018-11-13T07:12:22.066Z,8.30
2018-11-13T07:14:49.433Z,6.03
2018-11-13T07:17:17.078Z,7.50
2018-11-13T07:19:44.459Z,7.17
2018-11-13T07:22:11.883Z,6.13
2018-11-13T07:24:39.274Z,9.17
2018-11-13T07:27:06.708Z,7.97
2018-11-13T07:29:34.026Z,7.97
2018-11-13T07:32:01.398Z,7.30
2018-11-13T07:34:28.815Z,7.00
2018-11-13T07:36:59.695Z,8.23
2018-11-13T07:39:27.054Z,10.57
2018-11-13T07:41:54.535Z,7.87
2018-11-13T07:44:21.907Z,6.80
2018-11-13T07:46:49.682Z,7.00
2018-11-13T07:49:16.999Z,8.43
2018-11-13T07:51:44.475Z,6.57
2018-11-13T07:54:11.990Z,7.70
2018-11-13T07:56:39.419Z,6.33
2018-11-13T07:59:06.799Z,7.30
2018-11-13T08:01:34.171Z,8.13
2018-11-13T08:04:01.533Z,9.40
2018-11-13T08:06:28.910Z,9.33
2018-11-13T08:08:56.270Z,5.23
2018-11-13T08:11:23.664Z,6.50
2018-11-13T08:13:51.121Z,7.80
2018-11-13T08:16:18.478Z,8.17
2018-11-13T08:18:49.430Z,8.23
2018-11-13T08:21:16.802Z,5.60
2018-11-13T08:23:44.166Z,6.03
2018-11-13T08:26:11.587Z,5.97
2018-11-13T08:28:38.919Z,7.17
2018-11-13T08:31:06.599Z,6.73
2018-11-13T08:33:33.963Z,5.87
2018-11-13T08:36:01.353Z,5.20
2018-11-13T08:38:28.729Z,6.60
2018-11-13T08:40:56.102Z,6.40
2018-11-13T08:43:23.459Z,5.93
2018-11-13T08:45:50.814Z,7.30
2018-11-13T08:48:18.214Z,8.03
2018-11-13T08:50:45.646Z,8.10
2018-11-13T08:53:12.946Z,5.67
2018-11-13T08:55:40.326Z,7.27
2018-11-13T08:58:07.682Z,5.30
2018-11-13T09:00:35.070Z,6.20
2018-11-13T09:03:02.435Z,7.20
2018-11-13T09:05:29.788Z,4.97
2018-11-13T09:07:57.170Z,5.30
2018-11-13T09:10:24.550Z,8.13
2018-11-13T09:12:51.914Z,5.40
2018-11-13T09:15:20.298Z,5.23
2018-11-13T09:17:47.693Z,5.37
2018-11-13T09:20:16.246Z,5.40
2018-11-13T09:22:43.634Z,6.40
2018-11-13T09:25:13.694Z,5.87
2018-11-13T09:27:41.042Z,9.53
2018-11-13T09:30:10.049Z,6.57
2018-11-13T09:32:37.531Z,10.30
2018-11-13T09:35:05.150Z,8.30
2018-11-13T09:37:32.502Z,6.63
2018-11-13T09:39:59.906Z,7.13
2018-11-13T09:42:27.266Z,6.47
2018-11-13T09:44:54.651Z,9.00
2018-11-13T09:47:22.002Z,6.30
2018-11-13T09:49:49.351Z,5.40
2018-11-13T09:52:16.717Z,4.93
2018-11-13T09:54:44.098Z,5.63
2018-11-13T09:57:11.459Z,6.03
2018-11-13T09:59:38.855Z,7.60
2018-11-13T10:02:06.794Z,7.27
2018-11-13T10:04:34.259Z,6.30
2018-11-13T10:07:01.091Z,6.17
2018-11-13T10:09:28.462Z,6.70
2018-11-13T10:11:55.839Z,10.30
2018-11-13T10:14:23.498Z,7.60
2018-11-13T10:16:50.863Z,8.17
2018-11-13T10:19:18.244Z,7.47
2018-11-13T10:21:45.618Z,6.03
2018-11-13T10:24:13.004Z,7.27
2018-11-13T10:26:40.368Z,6.27
2018-11-13T10:29:07.735Z,7.90
2018-11-13T10:31:35.114Z,5.17
2018-11-13T10:34:02.506Z,8.77
2018-11-13T10:36:29.902Z,5.77
2018-11-13T10:38:57.386Z,5.20
2018-11-13T10:41:24.840Z,5.33
2018-11-13T10:43:52.138Z,6.03
2018-11-13T10:46:19.590Z,5.27
2018-11-13T10:48:46.957Z,5.23
2018-11-13T10:51:14.319Z,6.33
2018-11-13T10:53:41.703Z,5.63
2018-11-13T10:56:09.424Z,6.60
2018-11-13T10:58:36.969Z,4.80
2018-11-13T11:01:10.459Z,4.60
2018-11-13T11:04:44.458Z,7.33
2018-11-13T11:07:12.051Z,4.90
2018-11-13T11:09:39.588Z,5.20
2018-11-13T11:12:07.171Z,6.13
2018-11-13T11:14:34.729Z,7.20
2018-11-13T11:17:02.329Z,7.43
2018-11-13T11:19:30.487Z,9.43
2018-11-13T11:21:58.028Z,5.10
2018-11-13T11:24:25.620Z,8.50
2018-11-13T11:26:53.239Z,5.53
2018-11-13T11:29:20.808Z,13.20
2018-11-13T11:31:48.460Z,6.23
2018-11-13T11:34:16.056Z,5.13
2018-11-13T11:36:43.644Z,5.50
2018-11-13T11:39:11.929Z,6.47
2018-11-13T11:41:39.612Z,5.30
2018-11-13T11:44:07.899Z,5.60
2018-11-13T11:46:35.464Z,5.30
2018-11-13T11:49:03.519Z,5.30
2018-11-13T11:51:32.076Z,5.53
2018-11-13T11:53:59.798Z,5.07
2018-11-13T11:56:27.367Z,6.63
2018-11-13T11:58:54.919Z,7.90
2018-11-13T12:01:22.441Z,9.07
2018-11-13T12:03:50.027Z,10.20
2018-11-13T12:06:17.539Z,9.80
2018-11-13T12:08:45.112Z,8.90
2018-11-13T12:11:12.708Z,5.40
2018-11-13T12:13:40.311Z,6.70
2018-11-13T12:16:07.995Z,7.67
2018-11-13T12:18:35.590Z,6.73
2018-11-13T12:21:03.208Z,7.83
2018-11-13T12:23:30.823Z,5.00
2018-11-13T12:25:58.530Z,5.40
2018-11-13T12:28:25.950Z,6.90
2018-11-13T12:30:53.575Z,6.40
2018-11-13T12:33:21.121Z,7.90
2018-11-13T12:35:48.780Z,5.60
2018-11-13T12:38:16.303Z,5.00
2018-11-13T12:40:43.941Z,4.93
2018-11-13T12:43:11.460Z,4.80
2018-11-13T12:45:39.069Z,5.30
2018-11-13T12:48:06.668Z,7.03
2018-11-13T12:50:39.919Z,5.50
2018-11-13T12:53:07.452Z,7.40
2018-11-13T12:55:35.138Z,7.07
2018-11-13T12:58:02.684Z,5.90
2018-11-13T13:00:30.376Z,5.73
2018-11-13T13:03:01.250Z,6.30
2018-11-13T13:05:28.873Z,8.17
2018-11-13T13:07:56.427Z,5.23
2018-11-13T13:10:24.068Z,5.83
2018-11-13T13:12:51.631Z,6.63
2018-11-13T13:15:19.833Z,5.93
2018-11-13T13:17:47.463Z,5.40
2018-11-13T13:20:16.825Z,7.67
2018-11-13T13:22:45.625Z,9.53
2018-11-13T13:25:14.634Z,5.30
2018-11-13T13:27:42.216Z,5.23
2018-11-13T13:30:11.187Z,14.40
2018-11-13T13:32:38.808Z,7.43
2018-11-13T13:35:12.080Z,12.70
2018-11-13T13:37:39.747Z,5.67
2018-11-13T13:40:07.357Z,7.17
2018-11-13T13:42:36.088Z,6.03
2018-11-13T13:45:03.888Z,5.20
2018-11-13T13:47:31.472Z,6.10
2018-11-13T13:49:59.016Z,6.23
2018-11-13T13:52:26.596Z,7.20
2018-11-13T13:54:54.188Z,5.90
2018-11-13T13:57:21.735Z,7.03
2018-11-13T13:59:49.574Z,9.00
2018-11-13T14:02:17.007Z,6.53
2018-11-13T14:04:44.519Z,5.50
2018-11-13T14:07:12.160Z,8.27
2018-11-13T14:09:39.708Z,6.80
2018-11-13T14:12:07.287Z,5.40
2018-11-13T14:14:34.877Z,6.80
2018-11-13T14:17:02.511Z,6.70
2018-11-13T14:19:30.088Z,5.67
2018-11-13T14:21:57.731Z,6.30
2018-11-13T14:24:25.350Z,10.90
2018-11-13T14:26:52.918Z,9.40
2018-11-13T14:29:20.528Z,13.03
2018-11-13T14:31:48.122Z,5.63
2018-11-13T14:34:15.715Z,6.10
2018-11-13T14:36:43.328Z,5.90
2018-11-13T14:39:11.339Z,9.90
2018-11-13T14:41:39.064Z,12.67
2018-11-13T14:44:06.798Z,5.40
2018-11-13T14:46:34.444Z,7.60
2018-11-13T14:49:02.000Z,6.80
2018-11-13T14:51:29.617Z,7.63
2018-11-13T14:53:57.208Z,9.10
2018-11-13T14:56:24.932Z,5.87
2018-11-13T14:58:52.499Z,6.60
2018-11-13T15:01:20.065Z,6.23
2018-11-13T15:03:47.663Z,5.10
2018-11-13T15:06:15.343Z,7.27
2018-11-13T15:08:42.965Z,5.87
2018-11-13T15:11:10.539Z,5.33
2018-11-13T15:13:38.179Z,7.03
2018-11-13T15:16:05.788Z,8.93
2018-11-13T15:18:33.432Z,5.60
2018-11-13T15:21:01.050Z,8.10
2018-11-13T15:23:28.635Z,6.30
2018-11-13T15:25:56.252Z,6.07
2018-11-13T15:28:23.891Z,9.40
2018-11-13T15:30:51.461Z,6.03
2018-11-13T15:33:19.733Z,5.40
2018-11-13T15:35:47.283Z,7.33
2018-11-13T15:38:14.922Z,5.70
2018-11-13T15:40:42.547Z,16.13
2018-11-13T15:43:10.092Z,7.40
2018-11-13T15:45:37.708Z,9.67
2018-11-13T15:48:06.529Z,7.20
2018-11-13T15:50:34.933Z,6.40
2018-11-13T15:53:02.513Z,19.63
2018-11-13T15:55:30.067Z,7.20
2018-11-13T15:57:57.928Z,7.20
2018-11-13T16:00:32.046Z,10.20
2018-11-13T16:03:00.402Z,10.23
2018-11-13T16:05:29.688Z,14.83
2018-11-13T16:07:58.261Z,6.50
2018-11-13T16:10:26.013Z,6.50
2018-11-13T16:12:53.782Z,5.43
2018-11-13T16:15:22.118Z,5.53
2018-11-13T16:17:50.553Z,8.20
2018-11-13T16:20:18.488Z,11.83
2018-11-13T16:22:46.070Z,11.97
2018-11-13T16:25:13.588Z,9.93
2018-11-13T16:27:41.132Z,9.93
2018-11-13T16:30:09.559Z,8.77
2018-11-13T16:32:37.087Z,11.63
2018-11-13T16:35:05.562Z,6.50
2018-11-13T16:37:33.125Z,6.63
2018-11-13T16:40:00.773Z,7.70
2018-11-13T16:42:28.264Z,9.10
2018-11-13T16:44:55.842Z,10.97
2018-11-13T16:47:23.258Z,5.73
2018-11-13T16:49:50.810Z,9.33
2018-11-13T16:52:18.342Z,10.50
2018-11-13T16:54:49.608Z,9.80
2018-11-13T16:57:17.985Z,6.43
2018-11-13T16:59:46.017Z,5.87
2018-11-13T17:02:13.795Z,7.37
2018-11-13T17:04:41.513Z,5.50
2018-11-13T17:07:09.254Z,8.20
2018-11-13T17:09:36.785Z,5.77
2018-11-13T17:12:05.040Z,5.47
2018-11-13T17:14:32.503Z,12.20
2018-11-13T17:17:00.006Z,6.87
2018-11-13T17:19:29.006Z,6.87
2018-11-13T17:21:56.834Z,7.33
2018-11-13T17:24:28.252Z,7.30
2018-11-13T17:26:55.776Z,5.17
2018-11-13T17:29:24.279Z,7.80
2018-11-13T17:31:51.810Z,6.67
2018-11-13T17:34:19.313Z,7.40
2018-11-13T17:36:47.054Z,8.70
2018-11-13T17:39:14.593Z,5.80
2018-11-13T17:41:42.410Z,5.63
2018-11-13T17:44:10.036Z,6.40
2018-11-13T17:46:37.534Z,11.10
2018-11-13T17:49:05.166Z,7.53
2018-11-13T17:51:33.200Z,6.40
2018-11-13T17:54:00.782Z,8.80
2018-11-13T17:56:28.429Z,10.20
2018-11-13T17:58:56.013Z,6.60
2018-11-13T18:01:23.629Z,7.67
2018-11-13T18:03:51.205Z,8.55
2018-11-13T18:06:18.754Z,6.70
2018-11-13T18:08:46.226Z,10.40
2018-11-13T18:26:41.033Z,5.87
2018-11-13T18:29:08.507Z,8.18
2018-11-13T18:31:36.150Z,6.35
2018-11-13T18:34:03.755Z,10.72
2018-11-13T18:36:31.285Z,10.15
2018-11-13T18:38:59.023Z,10.20
2018-11-13T18:41:26.433Z,9.68
2018-11-13T18:43:53.981Z,6.40
2018-11-13T18:46:21.567Z,7.22
2018-11-13T18:48:49.046Z,8.58
2018-11-13T18:51:16.677Z,13.28
2018-11-13T18:53:44.224Z,8.73
2018-11-13T18:56:12.023Z,9.05
2018-11-13T18:58:40.075Z,7.90
2018-11-13T19:01:07.986Z,7.47
2018-11-13T19:03:35.692Z,6.45
2018-11-13T19:06:03.903Z,7.65
2018-11-13T19:08:32.067Z,7.37
2018-11-13T19:11:02.496Z,9.20
2018-11-13T19:13:31.692Z,6.80
2018-11-13T19:16:01.917Z,6.05
2018-11-13T19:18:31.248Z,7.05
2018-11-13T19:21:00.636Z,7.50
2018-11-13T19:23:29.955Z,8.68
2018-11-13T19:25:58.904Z,9.08
2018-11-13T19:28:28.307Z,10.15
2018-11-13T19:30:57.581Z,6.37
2018-11-13T19:33:26.650Z,7.80
2018-11-13T19:35:56.075Z,7.87
2018-11-13T19:38:25.364Z,7.65
2018-11-13T19:40:54.702Z,8.87
2018-11-13T19:43:24.345Z,8.13
2018-11-13T19:45:53.646Z,11.33
2018-11-13T19:48:22.995Z,13.62
2018-11-13T19:50:52.537Z,17.15
2018-11-13T19:53:21.981Z,10.90
2018-11-13T19:55:51.404Z,18.57
2018-11-13T19:58:20.948Z,12.35
2018-11-13T20:00:50.358Z,13.90
2018-11-13T20:03:19.983Z,10.08
2018-11-13T20:05:49.387Z,6.62
2018-11-13T20:08:18.855Z,8.93
2018-11-13T20:10:48.341Z,8.45
2018-11-13T20:13:18.052Z,8.13
2018-11-13T20:15:47.562Z,6.45
2018-11-13T20:18:17.232Z,7.55
2018-11-13T20:20:46.661Z,8.48
2018-11-13T20:23:16.046Z,9.43
2018-11-13T20:25:45.564Z,12.10
2018-11-13T20:28:15.016Z,8.43
2018-11-13T20:30:44.357Z,8.78
2018-11-13T20:33:14.089Z,9.68
2018-11-13T20:35:43.554Z,10.32
2018-11-13T20:38:12.938Z,9.18
2018-11-13T20:40:42.543Z,7.28
2018-11-13T20:43:12.758Z,7.40
2018-11-13T20:45:42.395Z,7.42
2018-11-13T20:48:11.721Z,10.53
2018-11-13T20:50:41.262Z,9.15
2018-11-13T20:53:10.884Z,8.28
2018-11-13T20:55:40.180Z,8.65
2018-11-13T20:58:09.522Z,8.25
2018-11-13T21:00:38.902Z,8.93
2018-11-13T21:03:09.475Z,10.05
2018-11-13T21:05:39.011Z,8.25
2018-11-13T21:08:08.411Z,8.55
2018-11-13T21:10:38.998Z,7.10
2018-11-13T21:13:09.253Z,9.98
2018-11-13T21:15:38.588Z,10.53
2018-11-13T21:18:07.924Z,9.05
2018-11-13T21:20:37.263Z,10.15
2018-11-13T21:23:06.351Z,10.95
2018-11-13T21:25:35.324Z,10.75
2018-11-13T21:28:04.176Z,7.95
2018-11-13T21:30:33.456Z,8.73
2018-11-13T21:33:02.206Z,8.00
2018-11-13T21:35:30.734Z,12.63
2018-11-13T21:37:58.688Z,10.63
2018-11-13T21:47:49.668Z,11.57
2018-11-13T21:50:18.538Z,8.08
2018-11-13T22:05:01.544Z,13.25
2018-11-13T22:07:29.104Z,9.48
2018-11-13T22:09:56.688Z,8.25
2018-11-13T22:12:24.262Z,6.12
2018-11-13T22:14:51.849Z,9.83
2018-11-13T22:17:20.411Z,8.75
2018-11-13T22:19:48.028Z,7.15
2018-11-13T22:22:15.693Z,6.08
2018-11-13T22:24:43.201Z,13.45
2018-11-13T22:27:10.968Z,8.40
2018-11-13T22:29:38.535Z,6.72
2018-11-13T22:32:06.149Z,6.55
2018-11-13T22:34:33.694Z,8.60
2018-11-13T22:37:05.176Z,8.10
2018-11-13T22:39:32.742Z,9.23
2018-11-13T22:42:00.303Z,8.43
2018-11-13T22:44:28.275Z,10.03
2018-11-13T22:46:55.479Z,7.62
2018-11-13T22:49:23.027Z,8.45
2018-11-13T22:51:50.566Z,7.25
2018-11-13T22:54:18.199Z,7.33
2018-11-13T22:56:45.846Z,8.38
2018-11-13T22:59:13.392Z,7.62
2018-11-13T23:01:40.956Z,7.33
2018-11-13T23:04:08.536Z,7.50
2018-11-13T23:06:36.087Z,9.35
2018-11-13T23:09:05.751Z,7.08
2018-11-13T23:11:33.308Z,6.00
2018-11-13T23:14:00.887Z,7.33
2018-11-13T23:16:28.483Z,6.70
2018-11-13T23:18:55.991Z,10.82
2018-11-13T23:21:23.571Z,6.42
2018-11-13T23:23:51.190Z,8.80
2018-11-13T23:26:18.742Z,8.63
2018-11-13T23:28:46.286Z,11.63
2018-11-13T23:31:13.896Z,6.42
2018-11-13T23:33:41.511Z,6.95
2018-11-13T23:36:09.120Z,8.15
2018-11-13T23:38:36.679Z,6.17
2018-11-13T23:41:04.319Z,7.95
2018-11-13T23:43:31.889Z,6.30
2018-11-13T23:46:03.168Z,7.25
2018-11-13T23:48:30.778Z,9.23
2018-11-13T23:50:58.296Z,8.05
2018-11-13T23:53:25.881Z,6.30
2018-11-13T23:55:53.484Z,7.58
2018-11-13T23:58:21.058Z,7.42
